createdAt,value
2022-12-26T00:01:29.716Z,12.63
2022-12-26T00:04:48.931Z,10.85
2022-12-26T00:07:23.524Z,11.55
2022-12-26T00:10:09.780Z,9.77
2022-12-26T00:12:55.844Z,8.82
2022-12-26T00:16:14.176Z,18.77
2022-12-26T00:19:00.877Z,11.85
2022-12-26T00:21:48.478Z,13.38
2022-12-26T00:24:34.928Z,16.13
2022-12-26T00:27:21.037Z,13.45
2022-12-26T00:30:08.513Z,12.48
2022-12-26T00:32:55.314Z,12.18
2022-12-26T00:35:41.327Z,15.32
2022-12-26T00:38:32.979Z,16.98
2022-12-26T00:41:20.870Z,10.65
2022-12-26T00:44:07.334Z,23.40
2022-12-26T00:46:53.305Z,10.18
2022-12-26T00:50:11.225Z,11.43
2022-12-26T00:52:46.111Z,18.05
2022-12-26T00:55:35.242Z,12.00
2022-12-26T00:58:24.848Z,10.50
2022-12-26T01:01:21.517Z,15.85
2022-12-26T01:04:07.981Z,17.05
2022-12-26T01:06:54.063Z,9.50
2022-12-26T01:09:40.168Z,13.98
2022-12-26T01:12:27.463Z,15.10
2022-12-26T01:15:13.714Z,17.30
2022-12-26T01:18:00.865Z,14.90
2022-12-26T01:20:47.201Z,18.50
2022-12-26T01:23:33.477Z,12.82
2022-12-26T01:26:20.450Z,13.73
2022-12-26T01:29:06.866Z,8.10
2022-12-26T01:31:53.006Z,11.95
2022-12-26T01:34:38.879Z,12.52
2022-12-26T01:37:24.789Z,9.40
2022-12-26T01:40:12.508Z,13.70
2022-12-26T01:42:58.886Z,14.15
2022-12-26T01:45:50.633Z,12.98
2022-12-26T01:48:36.583Z,15.73
2022-12-26T01:51:26.643Z,13.85
2022-12-26T01:54:39.040Z,14.80
2022-12-26T01:57:32.911Z,9.82
2022-12-26T02:00:19.080Z,14.20
2022-12-26T02:03:27.058Z,14.05
2022-12-26T02:06:14.748Z,14.85
2022-12-26T02:09:01.813Z,16.33
2022-12-26T02:12:35.769Z,13.27
2022-12-26T02:15:10.311Z,10.53
2022-12-26T02:17:59.809Z,12.60
2022-12-26T02:21:00.954Z,10.68
2022-12-26T02:24:09.880Z,13.90
2022-12-26T02:27:10.632Z,21.05
2022-12-26T02:30:21.120Z,13.27
2022-12-26T02:33:24.986Z,19.58
2022-12-26T02:36:35.644Z,15.95
2022-12-26T02:39:46.887Z,13.63
2022-12-26T02:42:56.497Z,10.55
2022-12-26T02:46:04.675Z,11.05
2022-12-26T02:49:21.619Z,10.70
2022-12-26T02:52:38.563Z,16.10
2022-12-26T02:55:47.417Z,19.63
2022-12-26T02:59:07.121Z,12.52
2022-12-26T03:02:17.129Z,15.13
2022-12-26T03:05:23.597Z,14.15
2022-12-26T03:08:41.976Z,14.75
2022-12-26T03:11:56.305Z,15.60
2022-12-26T03:14:54.088Z,11.70
2022-12-26T03:17:51.866Z,18.77
2022-12-26T03:20:39.204Z,16.42
2022-12-26T03:23:25.110Z,11.73
2022-12-26T03:26:35.787Z,14.32
2022-12-26T03:29:42.538Z,11.73
2022-12-26T03:32:41.563Z,8.10
2022-12-26T03:35:32.083Z,8.27
2022-12-26T03:38:20.607Z,8.95
2022-12-26T03:41:32.181Z,15.35
2022-12-26T03:44:58.475Z,11.52
2022-12-26T03:48:18.727Z,8.82
2022-12-26T03:51:39.497Z,12.90
2022-12-26T03:54:59.876Z,12.20
2022-12-26T03:58:13.603Z,8.60
2022-12-26T04:01:19.826Z,7.87
2022-12-26T04:04:28.777Z,15.07
2022-12-26T04:07:56.605Z,9.13
2022-12-26T04:11:08.642Z,5.25
2022-12-26T04:14:22.952Z,6.75
2022-12-26T04:17:40.226Z,6.47
2022-12-26T04:20:40.929Z,8.65
2022-12-26T04:24:06.448Z,7.80
2022-12-26T04:27:16.712Z,6.32
2022-12-26T04:30:21.078Z,7.25
2022-12-26T04:33:37.908Z,3.97
2022-12-26T04:36:56.159Z,3.03
2022-12-26T04:40:04.715Z,3.22
2022-12-26T04:43:48.648Z,2.58
2022-12-26T04:46:21.934Z,3.08
2022-12-26T04:49:31.455Z,2.72
2022-12-26T04:52:17.452Z,2.92
2022-12-26T04:55:05.756Z,4.22
2022-12-26T04:57:51.737Z,3.08
2022-12-26T05:00:37.849Z,3.28
2022-12-26T05:03:42.103Z,5.65
2022-12-26T05:06:47.074Z,2.20
2022-12-26T05:09:35.942Z,2.53
2022-12-26T05:12:22.124Z,2.58
2022-12-26T05:15:08.317Z,2.90
2022-12-26T05:18:12.742Z,1.45
2022-12-26T05:21:20.799Z,3.38
2022-12-26T05:24:28.528Z,7.57
2022-12-26T05:27:34.659Z,3.17
2022-12-26T05:30:21.927Z,7.10
2022-12-26T05:33:26.530Z,2.83
2022-12-26T05:36:13.848Z,2.97
2022-12-26T05:39:00.592Z,5.22
2022-12-26T05:41:46.726Z,4.45
2022-12-26T05:44:33.142Z,3.05
2022-12-26T05:47:18.929Z,6.88
2022-12-26T05:50:05.492Z,2.70
2022-12-26T05:52:51.591Z,1.55
2022-12-26T05:55:37.747Z,0.93
2022-12-26T05:58:23.787Z,0.47
2022-12-26T06:01:15.426Z,1.75
2022-12-26T06:04:01.775Z,0.95
2022-12-26T06:06:47.849Z,0.95
2022-12-26T06:09:34.145Z,1.63
2022-12-26T06:12:20.592Z,4.03
2022-12-26T06:15:07.359Z,1.75
2022-12-26T06:17:56.055Z,2.35
2022-12-26T06:20:43.468Z,1.42
2022-12-26T06:23:29.602Z,2.72
2022-12-26T06:26:16.626Z,4.80
2022-12-26T06:29:02.455Z,4.32
2022-12-26T06:31:48.431Z,2.95
2022-12-26T06:34:34.418Z,1.83
2022-12-26T06:37:20.279Z,4.07
2022-12-26T06:40:10.466Z,2.42
2022-12-26T06:42:57.579Z,2.83
2022-12-26T06:45:44.198Z,1.60
2022-12-26T06:48:32.228Z,11.07
2022-12-26T06:51:25.123Z,4.55
2022-12-26T06:54:11.374Z,5.43
2022-12-26T06:56:57.786Z,1.80
2022-12-26T06:59:44.611Z,3.88
2022-12-26T07:02:31.583Z,2.30
2022-12-26T07:05:17.739Z,5.88
2022-12-26T07:08:03.844Z,5.43
2022-12-26T07:10:50.505Z,4.47
2022-12-26T07:13:36.647Z,2.38
2022-12-26T07:16:26.233Z,4.07
2022-12-26T07:19:14.029Z,9.23
2022-12-26T07:22:17.177Z,5.60
2022-12-26T07:25:03.613Z,2.53
2022-12-26T07:27:56.239Z,5.53
2022-12-26T07:30:48.479Z,5.07
2022-12-26T07:33:34.781Z,3.50
2022-12-26T07:36:22.343Z,1.75
2022-12-26T07:39:09.223Z,6.53
2022-12-26T07:41:58.335Z,2.97
2022-12-26T07:44:45.364Z,4.93
2022-12-26T07:47:31.818Z,3.58
2022-12-26T07:50:25.664Z,2.75
2022-12-26T07:53:13.635Z,5.88
2022-12-26T07:56:04.225Z,3.08
2022-12-26T07:58:50.983Z,5.47
2022-12-26T08:01:47.943Z,4.10
2022-12-26T08:04:34.455Z,3.38
2022-12-26T08:07:20.745Z,7.13
2022-12-26T08:10:07.943Z,4.53
2022-12-26T08:12:54.125Z,4.63
2022-12-26T08:15:41.163Z,5.72
2022-12-26T08:18:27.557Z,5.75
2022-12-26T08:21:14.589Z,4.63
2022-12-26T08:24:01.069Z,3.28
2022-12-26T08:26:47.431Z,4.28
2022-12-26T08:29:33.861Z,7.25
2022-12-26T08:32:20.123Z,5.20
2022-12-26T08:35:06.956Z,4.78
2022-12-26T08:37:52.819Z,4.13
2022-12-26T08:40:43.509Z,5.07
2022-12-26T08:46:39.347Z,6.82
2022-12-26T08:49:25.546Z,4.63
2022-12-26T08:52:12.085Z,6.95
2022-12-26T08:54:58.055Z,3.90
2022-12-26T08:57:50.971Z,4.85
2022-12-26T09:00:37.483Z,8.30
2022-12-26T09:03:27.652Z,3.38
2022-12-26T09:06:15.332Z,3.38
2022-12-26T09:09:26.729Z,3.92
2022-12-26T09:13:00.604Z,9.85
2022-12-26T09:15:51.118Z,6.25
2022-12-26T09:22:35.574Z,7.13
2022-12-26T09:26:19.614Z,5.05
2022-12-26T09:29:12.575Z,8.18
2022-12-26T09:32:02.769Z,4.18
2022-12-26T09:34:49.665Z,3.78
2022-12-26T09:37:39.853Z,5.50
2022-12-26T09:40:33.211Z,4.30
2022-12-26T09:43:56.794Z,3.78
2022-12-26T09:47:13.596Z,3.33
2022-12-26T09:50:05.487Z,4.80
2022-12-26T09:53:02.562Z,3.70
2022-12-26T09:56:02.901Z,3.95
2022-12-26T09:58:53.396Z,3.53
2022-12-26T10:01:40.859Z,5.70
2022-12-26T10:04:30.530Z,4.40
2022-12-26T10:07:39.837Z,3.42
2022-12-26T10:10:49.785Z,2.63
2022-12-26T10:13:45.607Z,2.50
2022-12-26T10:17:14.905Z,3.35
2022-12-26T10:20:36.671Z,4.25
2022-12-26T10:23:34.925Z,3.13
2022-12-26T10:26:33.833Z,2.80
2022-12-26T10:29:38.563Z,4.68
2022-12-26T10:35:39.272Z,1.67
2022-12-26T10:38:37.948Z,2.53
2022-12-26T10:41:50.102Z,5.00
2022-12-26T10:44:39.153Z,2.40
2022-12-26T10:47:27.378Z,3.75
2022-12-26T10:50:27.838Z,5.22
2022-12-26T10:53:17.874Z,2.40
2022-12-26T10:56:04.108Z,2.38
2022-12-26T10:59:00.463Z,3.33
2022-12-26T11:01:48.585Z,2.67
2022-12-26T11:05:11.155Z,6.15
2022-12-26T11:07:48.890Z,5.30
2022-12-26T11:10:35.331Z,4.95
2022-12-26T11:13:23.152Z,4.82
2022-12-26T11:16:10.372Z,5.60
2022-12-26T11:18:57.484Z,3.63
2022-12-26T11:21:43.340Z,4.72
2022-12-26T11:24:32.218Z,7.03
2022-12-26T11:27:23.642Z,11.48
2022-12-26T11:30:30.733Z,7.57
2022-12-26T11:33:22.190Z,10.25
2022-12-26T11:36:16.856Z,6.38
2022-12-26T11:39:07.292Z,5.93
2022-12-26T11:41:53.930Z,7.45
2022-12-26T11:44:45.673Z,7.82
2022-12-26T11:47:33.678Z,6.43
2022-12-26T11:50:22.737Z,8.15
2022-12-26T11:53:19.232Z,5.95
2022-12-26T11:56:09.655Z,4.82
2022-12-26T11:59:16.084Z,4.93
2022-12-26T12:02:20.133Z,4.70
2022-12-26T12:05:22.770Z,7.97
2022-12-26T12:08:26.662Z,7.80
2022-12-26T12:11:36.321Z,4.10
2022-12-26T12:14:29.541Z,4.97
2022-12-26T12:17:23.000Z,7.60
2022-12-26T12:20:32.413Z,6.65
2022-12-26T12:23:37.267Z,2.28
2022-12-26T12:26:52.656Z,3.88
2022-12-26T12:29:48.402Z,8.98
2022-12-26T12:32:55.229Z,4.38
2022-12-26T12:35:52.088Z,5.40
2022-12-26T12:38:43.882Z,3.95
2022-12-26T12:42:01.482Z,10.70
2022-12-26T12:44:59.472Z,5.63
2022-12-26T12:48:09.533Z,6.03
2022-12-26T12:51:28.403Z,6.28
2022-12-26T12:54:20.091Z,5.13
2022-12-26T12:57:08.901Z,8.15
2022-12-26T13:00:15.756Z,6.70
2022-12-26T13:03:16.800Z,8.23
2022-12-26T13:06:03.046Z,6.18
2022-12-26T13:09:00.266Z,6.88
2022-12-26T13:11:56.327Z,7.30
2022-12-26T13:14:56.918Z,8.23
2022-12-26T13:17:56.154Z,5.32
2022-12-26T13:20:48.348Z,5.88
2022-12-26T13:24:09.221Z,5.38
2022-12-26T13:27:02.836Z,7.32
2022-12-26T13:29:49.811Z,4.07
2022-12-26T13:32:35.795Z,4.20
2022-12-26T13:35:49.670Z,8.05
2022-12-26T13:39:01.493Z,9.50
2022-12-26T13:42:10.876Z,5.05
2022-12-26T13:45:35.213Z,5.65
2022-12-26T13:48:21.593Z,3.80
2022-12-26T13:51:53.995Z,8.02
2022-12-26T13:54:51.870Z,4.22
2022-12-26T13:57:41.851Z,3.90
2022-12-26T14:00:48.024Z,7.35
2022-12-26T14:04:19.096Z,10.50
2022-12-26T14:07:31.039Z,6.35
2022-12-26T14:10:39.699Z,3.70
2022-12-26T14:13:38.659Z,3.90
2022-12-26T14:16:49.135Z,5.18
2022-12-26T14:20:07.433Z,4.07
2022-12-26T14:23:33.384Z,4.32
2022-12-26T14:26:54.742Z,3.53
2022-12-26T14:30:05.198Z,5.10
2022-12-26T14:33:21.997Z,3.88
2022-12-26T14:36:44.571Z,4.82
2022-12-26T14:39:48.828Z,9.40
2022-12-26T14:43:12.039Z,8.43
2022-12-26T14:45:58.883Z,8.75
2022-12-26T14:48:48.917Z,6.60
2022-12-26T14:51:41.417Z,6.72
2022-12-26T14:54:36.416Z,9.63
2022-12-26T14:57:43.818Z,7.25
2022-12-26T15:00:32.491Z,6.22
2022-12-26T15:03:44.554Z,9.00
2022-12-26T15:07:08.354Z,9.93
2022-12-26T15:10:05.626Z,10.88
2022-12-26T15:13:38.058Z,7.53
2022-12-26T15:17:09.101Z,2.97
2022-12-26T15:20:38.933Z,5.05
2022-12-26T15:23:55.791Z,6.43
2022-12-26T15:27:02.384Z,6.03
2022-12-26T15:30:01.439Z,7.10
2022-12-26T15:33:08.055Z,17.10
2022-12-26T15:36:31.387Z,6.38
2022-12-26T15:39:23.850Z,5.82
2022-12-26T15:42:18.463Z,6.53
2022-12-26T15:45:32.145Z,5.55
2022-12-26T15:48:36.983Z,4.95
2022-12-26T15:51:59.618Z,4.55
2022-12-26T15:54:58.034Z,8.02
2022-12-26T15:57:46.964Z,6.15
2022-12-26T16:00:38.363Z,3.83
2022-12-26T16:03:36.977Z,5.45
2022-12-26T16:06:50.738Z,7.47
2022-12-26T16:09:41.696Z,6.45
2022-12-26T16:12:30.922Z,10.43
2022-12-26T16:15:18.227Z,4.82
2022-12-26T16:18:18.231Z,4.82
2022-12-26T16:21:27.319Z,12.55
2022-12-26T16:24:16.279Z,7.28
2022-12-26T16:27:05.333Z,7.13
2022-12-26T16:30:02.053Z,5.20
2022-12-26T16:32:51.022Z,4.82
2022-12-26T16:35:41.441Z,6.20
2022-12-26T16:38:32.603Z,8.57
2022-12-26T16:41:25.440Z,7.35
2022-12-26T16:44:36.342Z,5.20
2022-12-26T16:47:23.272Z,7.50
2022-12-26T16:50:19.986Z,5.30
2022-12-26T16:53:21.945Z,10.13
2022-12-26T16:56:31.175Z,5.18
2022-12-26T16:59:23.778Z,7.65
2022-12-26T17:02:18.094Z,5.60
2022-12-26T17:05:27.360Z,4.25
2022-12-26T17:08:15.023Z,4.97
2022-12-26T17:11:01.095Z,4.55
2022-12-26T17:13:53.964Z,10.32
2022-12-26T17:16:41.375Z,7.78
2022-12-26T17:19:31.550Z,6.85
2022-12-26T17:22:20.714Z,4.10
2022-12-26T17:25:30.235Z,7.68
2022-12-26T17:28:28.474Z,5.55
2022-12-26T17:31:22.188Z,9.05
2022-12-26T17:34:18.297Z,6.18
2022-12-26T17:37:20.720Z,10.13
2022-12-26T17:40:15.932Z,11.68
2022-12-26T17:43:24.065Z,7.57
2022-12-26T17:46:14.261Z,4.75
2022-12-26T17:49:00.529Z,8.95
2022-12-26T17:51:54.551Z,6.47
2022-12-26T17:54:45.264Z,6.40
2022-12-26T17:57:31.442Z,5.78
2022-12-26T18:00:20.694Z,3.70
2022-12-26T18:03:07.251Z,5.07
2022-12-26T18:05:56.380Z,6.30
2022-12-26T18:08:42.830Z,5.57
2022-12-26T18:11:28.947Z,4.60
2022-12-26T18:14:15.110Z,6.95
2022-12-26T18:17:02.600Z,6.35
2022-12-26T18:19:50.019Z,5.28
2022-12-26T18:22:38.830Z,6.65
2022-12-26T18:25:27.745Z,4.07
2022-12-26T18:28:16.103Z,6.50
2022-12-26T18:31:02.091Z,7.78
2022-12-26T18:33:48.191Z,7.85
2022-12-26T18:36:38.838Z,7.22
2022-12-26T18:39:25.271Z,6.53
2022-12-26T18:42:19.589Z,4.50
2022-12-26T18:45:08.876Z,6.07
2022-12-26T18:47:58.008Z,13.15
2022-12-26T18:50:44.601Z,7.00
2022-12-26T18:53:30.753Z,6.00
2022-12-26T18:56:20.408Z,6.38
2022-12-26T18:59:06.542Z,5.10
2022-12-26T19:01:52.446Z,5.95
2022-12-26T19:04:40.449Z,7.60
2022-12-26T19:07:26.881Z,5.95
2022-12-26T19:10:12.839Z,5.00
2022-12-26T19:13:05.751Z,7.55
2022-12-26T19:15:52.252Z,5.07
2022-12-26T19:18:38.751Z,5.25
2022-12-26T19:21:28.924Z,3.72
2022-12-26T19:24:17.404Z,6.32
2022-12-26T19:27:03.323Z,6.95
2022-12-26T19:29:49.537Z,7.85
2022-12-26T19:32:35.580Z,4.68
2022-12-26T19:35:21.765Z,5.95
2022-12-26T19:38:07.758Z,7.80
2022-12-26T19:40:53.520Z,3.90
2022-12-26T19:43:40.499Z,5.00
2022-12-26T19:46:27.717Z,5.93
2022-12-26T19:49:14.082Z,7.15
2022-12-26T19:52:00.640Z,6.13
2022-12-26T19:54:46.661Z,7.00
2022-12-26T19:57:32.867Z,5.75
2022-12-26T20:00:19.192Z,9.40
2022-12-26T20:03:05.016Z,5.10
2022-12-26T20:05:50.842Z,10.13
2022-12-26T20:08:37.044Z,6.55
2022-12-26T20:11:26.127Z,8.43
2022-12-26T20:14:16.167Z,4.93
2022-12-26T20:17:05.397Z,4.25
2022-12-26T20:19:52.888Z,6.68
2022-12-26T20:22:39.214Z,14.45
2022-12-26T20:25:25.722Z,7.97
2022-12-26T20:28:11.875Z,5.63
2022-12-26T20:31:03.564Z,4.95
2022-12-26T20:33:51.661Z,4.85
2022-12-26T20:36:38.223Z,5.43
2022-12-26T20:39:25.814Z,3.47
2022-12-26T20:42:17.127Z,6.25
2022-12-26T20:45:03.221Z,7.90
2022-12-26T20:47:52.934Z,6.63
2022-12-26T20:50:38.817Z,5.03
2022-12-26T20:53:25.240Z,9.60
2022-12-26T20:56:11.438Z,5.72
2022-12-26T20:58:59.430Z,10.93
2022-12-26T21:01:46.175Z,9.57
2022-12-26T21:04:33.185Z,5.85
2022-12-26T21:07:19.354Z,8.90
2022-12-26T21:10:06.204Z,7.45
2022-12-26T21:12:52.702Z,6.97
2022-12-26T21:15:39.513Z,8.13
2022-12-26T21:18:25.546Z,5.38
2022-12-26T21:21:14.184Z,8.75
2022-12-26T21:24:03.559Z,9.48
2022-12-26T21:26:49.911Z,7.88
2022-12-26T21:29:37.805Z,10.48
2022-12-26T21:32:24.000Z,12.23
2022-12-26T21:35:10.024Z,6.88
2022-12-26T21:37:56.306Z,10.75
2022-12-26T21:40:43.737Z,6.13
2022-12-26T21:43:32.526Z,8.70
2022-12-26T21:46:20.413Z,7.15
2022-12-26T21:49:06.599Z,4.93
2022-12-26T21:51:52.727Z,9.95
2022-12-26T21:55:00.002Z,8.55
2022-12-26T21:57:46.244Z,5.53
2022-12-26T22:00:33.238Z,10.50
2022-12-26T22:03:37.725Z,6.00
2022-12-26T22:06:23.945Z,6.70
2022-12-26T22:09:10.610Z,6.90
2022-12-26T22:12:15.837Z,7.68
2022-12-26T22:15:03.235Z,5.35
2022-12-26T22:17:49.749Z,6.30
2022-12-26T22:20:36.580Z,6.60
2022-12-26T22:23:22.425Z,6.70
2022-12-26T22:26:10.830Z,6.93
2022-12-26T22:28:58.757Z,5.72
2022-12-26T22:31:48.308Z,8.98
2022-12-26T22:34:34.251Z,4.82
2022-12-26T22:37:20.332Z,5.40
2022-12-26T22:40:10.107Z,3.67
2022-12-26T22:42:56.298Z,6.75
2022-12-26T22:45:42.736Z,4.93
2022-12-26T22:48:28.837Z,3.17
2022-12-26T22:51:23.720Z,4.95
2022-12-26T22:54:09.518Z,6.32
2022-12-26T22:56:55.375Z,6.25
2022-12-26T23:00:07.687Z,5.30
2022-12-26T23:02:47.689Z,3.90
2022-12-26T23:05:34.228Z,4.55
2022-12-26T23:08:23.204Z,6.43
2022-12-26T23:11:09.693Z,6.20
2022-12-26T23:13:56.280Z,6.22
2022-12-26T23:16:53.282Z,4.90
2022-12-26T23:20:08.966Z,4.63
2022-12-26T23:22:55.010Z,3.83
2022-12-26T23:25:41.609Z,2.35
2022-12-26T23:28:46.809Z,6.57
2022-12-26T23:31:32.913Z,7.30
2022-12-26T23:34:19.038Z,3.97
2022-12-26T23:37:07.589Z,9.50
2022-12-26T23:39:56.889Z,11.80
2022-12-26T23:42:44.353Z,3.97
2022-12-26T23:45:30.622Z,6.22
2022-12-26T23:48:18.962Z,5.80
2022-12-26T23:51:07.192Z,5.13
2022-12-26T23:53:53.501Z,5.15
2022-12-26T23:56:39.240Z,4.88
2022-12-26T23:59:25.544Z,4.40
